sensor_id;sensor_type;location;lat;lon;timestamp;P1;durP1;ratioP1;P2;durP2;ratioP2
17858;SDS011;35426;30.698;104.050;2023-04-03T00:01:15;26.70;;;5.63;;
17858;SDS011;35426;30.698;104.050;2023-04-03T00:03:51;33.67;;;5.37;;
17858;SDS011;35426;30.698;104.050;2023-04-03T00:06:28;23.87;;;5.80;;
17858;SDS011;35426;30.698;104.050;2023-04-03T00:09:07;23.43;;;5.30;;
17858;SDS011;35426;30.698;104.050;2023-04-03T00:11:46;30.53;;;5.43;;
17858;SDS011;35426;30.698;104.050;2023-04-03T00:14:26;32.93;;;6.17;;
17858;SDS011;35426;30.698;104.050;2023-04-03T00:17:09;23.93;;;5.50;;
17858;SDS011;35426;30.698;104.050;2023-04-03T00:19:45;23.23;;;4.90;;
17858;SDS011;35426;30.698;104.050;2023-04-03T00:22:25;24.00;;;5.37;;
17858;SDS011;35426;30.698;104.050;2023-04-03T00:25:02;31.67;;;6.03;;
17858;SDS011;35426;30.698;104.050;2023-04-03T00:27:40;24.20;;;5.33;;
17858;SDS011;35426;30.698;104.050;2023-04-03T00:30:17;23.00;;;4.93;;
17858;SDS011;35426;30.698;104.050;2023-04-03T00:32:58;24.07;;;5.13;;
17858;SDS011;35426;30.698;104.050;2023-04-03T00:35:36;26.73;;;5.70;;
17858;SDS011;35426;30.698;104.050;2023-04-03T00:38:12;31.73;;;5.50;;
17858;SDS011;35426;30.698;104.050;2023-04-03T00:40:55;19.93;;;4.87;;
17858;SDS011;35426;30.698;104.050;2023-04-03T00:43:32;28.07;;;5.10;;
17858;SDS011;35426;30.698;104.050;2023-04-03T00:46:11;21.97;;;4.40;;
17858;SDS011;35426;30.698;104.050;2023-04-03T00:48:53;16.73;;;4.00;;
17858;SDS011;35426;30.698;104.050;2023-04-03T00:51:37;29.13;;;4.50;;
17858;SDS011;35426;30.698;104.050;2023-04-03T00:54:18;16.93;;;3.93;;
17858;SDS011;35426;30.698;104.050;2023-04-03T00:56:56;16.60;;;3.93;;
17858;SDS011;35426;30.698;104.050;2023-04-03T00:59:38;13.73;;;3.90;;
17858;SDS011;35426;30.698;104.050;2023-04-03T01:02:18;22.13;;;4.70;;
17858;SDS011;35426;30.698;104.050;2023-04-03T01:05:15;17.20;;;4.43;;
17858;SDS011;35426;30.698;104.050;2023-04-03T01:07:58;16.73;;;4.07;;
17858;SDS011;35426;30.698;104.050;2023-04-03T01:10:36;17.73;;;4.20;;
17858;SDS011;35426;30.698;104.050;2023-04-03T01:13:24;16.77;;;4.07;;
17858;SDS011;35426;30.698;104.050;2023-04-03T01:16:02;14.83;;;3.93;;
17858;SDS011;35426;30.698;104.050;2023-04-03T01:18:39;17.03;;;3.70;;
17858;SDS011;35426;30.698;104.050;2023-04-03T01:24:33;13.03;;;3.77;;
17858;SDS011;35426;30.698;104.050;2023-04-03T01:27:22;13.87;;;3.97;;
17858;SDS011;35426;30.698;104.050;2023-04-03T01:29:59;12.83;;;3.50;;
17858;SDS011;35426;30.698;104.050;2023-04-03T01:32:40;16.17;;;3.90;;
17858;SDS011;35426;30.698;104.050;2023-04-03T01:35:23;18.13;;;3.33;;
17858;SDS011;35426;30.698;104.050;2023-04-03T01:37:59;24.50;;;3.90;;
17858;SDS011;35426;30.698;104.050;2023-04-03T01:40:36;16.03;;;4.33;;
17858;SDS011;35426;30.698;104.050;2023-04-03T01:43:14;15.57;;;3.67;;
17858;SDS011;35426;30.698;104.050;2023-04-03T01:45:54;15.80;;;3.60;;
17858;SDS011;35426;30.698;104.050;2023-04-03T01:48:33;16.70;;;4.17;;
17858;SDS011;35426;30.698;104.050;2023-04-03T01:51:11;22.23;;;4.23;;
17858;SDS011;35426;30.698;104.050;2023-04-03T01:53:49;19.97;;;4.63;;
17858;SDS011;35426;30.698;104.050;2023-04-03T01:56:27;19.03;;;4.10;;
17858;SDS011;35426;30.698;104.050;2023-04-03T01:59:10;19.83;;;3.77;;
17858;SDS011;35426;30.698;104.050;2023-04-03T02:01:52;23.67;;;3.90;;
17858;SDS011;35426;30.698;104.050;2023-04-03T02:04:34;17.93;;;3.77;;
17858;SDS011;35426;30.698;104.050;2023-04-03T02:07:12;19.17;;;3.83;;
17858;SDS011;35426;30.698;104.050;2023-04-03T02:09:48;19.70;;;4.20;;
17858;SDS011;35426;30.698;104.050;2023-04-03T02:12:26;17.93;;;4.03;;
17858;SDS011;35426;30.698;104.050;2023-04-03T02:15:05;19.43;;;4.67;;
17858;SDS011;35426;30.698;104.050;2023-04-03T02:17:49;18.17;;;4.93;;
17858;SDS011;35426;30.698;104.050;2023-04-03T02:20:29;21.33;;;4.10;;
17858;SDS011;35426;30.698;104.050;2023-04-03T02:23:09;19.43;;;4.43;;
17858;SDS011;35426;30.698;104.050;2023-04-03T02:25:46;15.17;;;3.57;;
17858;SDS011;35426;30.698;104.050;2023-04-03T02:28:23;14.83;;;3.70;;
17858;SDS011;35426;30.698;104.050;2023-04-03T02:31:00;17.93;;;3.73;;
17858;SDS011;35426;30.698;104.050;2023-04-03T02:33:41;17.77;;;4.00;;
17858;SDS011;35426;30.698;104.050;2023-04-03T02:36:21;22.27;;;4.73;;
17858;SDS011;35426;30.698;104.050;2023-04-03T02:39:09;16.27;;;3.60;;
17858;SDS011;35426;30.698;104.050;2023-04-03T02:41:46;16.83;;;4.17;;
17858;SDS011;35426;30.698;104.050;2023-04-03T02:44:25;14.97;;;4.50;;
17858;SDS011;35426;30.698;104.050;2023-04-03T02:47:06;24.67;;;4.33;;
17858;SDS011;35426;30.698;104.050;2023-04-03T02:49:47;17.50;;;4.33;;
17858;SDS011;35426;30.698;104.050;2023-04-03T02:52:26;21.23;;;4.40;;
17858;SDS011;35426;30.698;104.050;2023-04-03T02:55:07;29.33;;;4.70;;
17858;SDS011;35426;30.698;104.050;2023-04-03T02:57:53;26.47;;;5.80;;
17858;SDS011;35426;30.698;104.050;2023-04-03T03:00:35;16.43;;;5.07;;
17858;SDS011;35426;30.698;104.050;2023-04-03T03:03:15;21.43;;;5.00;;
17858;SDS011;35426;30.698;104.050;2023-04-03T03:06:01;24.23;;;4.80;;
17858;SDS011;35426;30.698;104.050;2023-04-03T03:08:46;23.60;;;5.10;;
17858;SDS011;35426;30.698;104.050;2023-04-03T03:11:26;22.60;;;4.83;;
17858;SDS011;35426;30.698;104.050;2023-04-03T03:14:09;18.27;;;4.63;;
17858;SDS011;35426;30.698;104.050;2023-04-03T03:16:45;23.87;;;4.53;;
17858;SDS011;35426;30.698;104.050;2023-04-03T03:19:21;22.63;;;4.87;;
17858;SDS011;35426;30.698;104.050;2023-04-03T03:21:57;20.27;;;4.23;;
17858;SDS011;35426;30.698;104.050;2023-04-03T03:24:42;13.90;;;4.43;;
17858;SDS011;35426;30.698;104.050;2023-04-03T03:27:19;24.83;;;5.23;;
17858;SDS011;35426;30.698;104.050;2023-04-03T03:29:58;16.90;;;4.30;;
17858;SDS011;35426;30.698;104.050;2023-04-03T03:32:35;15.00;;;4.00;;
17858;SDS011;35426;30.698;104.050;2023-04-03T03:35:10;19.70;;;4.70;;
17858;SDS011;35426;30.698;104.050;2023-04-03T03:37:44;15.30;;;4.43;;
17858;SDS011;35426;30.698;104.050;2023-04-03T03:40:20;28.57;;;4.77;;
17858;SDS011;35426;30.698;104.050;2023-04-03T03:42:54;17.00;;;4.50;;
17858;SDS011;35426;30.698;104.050;2023-04-03T03:45:29;21.50;;;4.93;;
17858;SDS011;35426;30.698;104.050;2023-04-03T03:48:03;20.13;;;5.17;;
17858;SDS011;35426;30.698;104.050;2023-04-03T03:50:37;17.27;;;4.70;;
17858;SDS011;35426;30.698;104.050;2023-04-03T03:53:11;22.90;;;5.23;;
17858;SDS011;35426;30.698;104.050;2023-04-03T03:55:46;18.83;;;4.70;;
17858;SDS011;35426;30.698;104.050;2023-04-03T03:58:22;19.60;;;5.00;;
17858;SDS011;35426;30.698;104.050;2023-04-03T04:00:55;15.43;;;4.87;;
17858;SDS011;35426;30.698;104.050;2023-04-03T04:03:33;19.73;;;5.10;;
17858;SDS011;35426;30.698;104.050;2023-04-03T04:06:08;14.93;;;4.47;;
17858;SDS011;35426;30.698;104.050;2023-04-03T04:08:41;17.03;;;5.30;;
17858;SDS011;35426;30.698;104.050;2023-04-03T04:11:17;26.27;;;5.80;;
17858;SDS011;35426;30.698;104.050;2023-04-03T04:13:53;16.03;;;5.17;;
17858;SDS011;35426;30.698;104.050;2023-04-03T04:16:29;27.33;;;5.73;;
17858;SDS011;35426;30.698;104.050;2023-04-03T04:19:08;17.77;;;5.40;;
17858;SDS011;35426;30.698;104.050;2023-04-03T04:21:47;18.03;;;5.47;;
17858;SDS011;35426;30.698;104.050;2023-04-03T04:24:20;22.00;;;5.80;;
17858;SDS011;35426;30.698;104.050;2023-04-03T04:26:57;25.17;;;6.27;;
17858;SDS011;35426;30.698;104.050;2023-04-03T04:29:35;25.97;;;6.37;;
17858;SDS011;35426;30.698;104.050;2023-04-03T04:32:09;18.13;;;6.07;;
17858;SDS011;35426;30.698;104.050;2023-04-03T04:34:45;21.87;;;6.10;;
17858;SDS011;35426;30.698;104.050;2023-04-03T04:37:19;16.87;;;6.87;;
17858;SDS011;35426;30.698;104.050;2023-04-03T04:39:53;20.90;;;6.87;;
17858;SDS011;35426;30.698;104.050;2023-04-03T04:42:29;18.80;;;6.60;;
17858;SDS011;35426;30.698;104.050;2023-04-03T04:45:03;27.60;;;6.70;;
17858;SDS011;35426;30.698;104.050;2023-04-03T04:47:38;20.53;;;6.80;;
17858;SDS011;35426;30.698;104.050;2023-04-03T04:50:13;22.27;;;6.70;;
17858;SDS011;35426;30.698;104.050;2023-04-03T04:52:48;23.20;;;6.87;;
17858;SDS011;35426;30.698;104.050;2023-04-03T04:55:23;27.73;;;7.10;;
17858;SDS011;35426;30.698;104.050;2023-04-03T04:57:59;25.00;;;7.23;;
17858;SDS011;35426;30.698;104.050;2023-04-03T05:00:34;19.63;;;6.50;;
17858;SDS011;35426;30.698;104.050;2023-04-03T05:03:09;15.63;;;6.47;;
17858;SDS011;35426;30.698;104.050;2023-04-03T05:05:44;18.40;;;6.80;;
17858;SDS011;35426;30.698;104.050;2023-04-03T05:08:19;25.57;;;7.10;;
17858;SDS011;35426;30.698;104.050;2023-04-03T05:10:53;25.17;;;7.30;;
17858;SDS011;35426;30.698;104.050;2023-04-03T05:13:29;26.20;;;6.63;;
17858;SDS011;35426;30.698;104.050;2023-04-03T05:16:06;17.50;;;6.83;;
17858;SDS011;35426;30.698;104.050;2023-04-03T05:18:41;22.53;;;7.10;;
17858;SDS011;35426;30.698;104.050;2023-04-03T05:21:20;24.23;;;6.90;;
17858;SDS011;35426;30.698;104.050;2023-04-03T05:23:55;19.23;;;6.60;;
17858;SDS011;35426;30.698;104.050;2023-04-03T05:26:30;21.47;;;6.80;;
17858;SDS011;35426;30.698;104.050;2023-04-03T05:29:05;23.47;;;7.33;;
17858;SDS011;35426;30.698;104.050;2023-04-03T05:31:39;12.47;;;6.00;;
17858;SDS011;35426;30.698;104.050;2023-04-03T05:34:13;22.17;;;6.30;;
17858;SDS011;35426;30.698;104.050;2023-04-03T05:37:01;19.57;;;6.53;;
17858;SDS011;35426;30.698;104.050;2023-04-03T05:39:36;19.93;;;6.43;;
17858;SDS011;35426;30.698;104.050;2023-04-03T05:42:12;17.70;;;6.50;;
17858;SDS011;35426;30.698;104.050;2023-04-03T05:44:48;20.43;;;6.40;;
17858;SDS011;35426;30.698;104.050;2023-04-03T05:47:21;17.87;;;6.00;;
17858;SDS011;35426;30.698;104.050;2023-04-03T05:49:55;18.77;;;6.67;;
17858;SDS011;35426;30.698;104.050;2023-04-03T05:52:29;15.50;;;6.27;;
17858;SDS011;35426;30.698;104.050;2023-04-03T05:55:07;13.47;;;5.50;;
17858;SDS011;35426;30.698;104.050;2023-04-03T05:57:40;17.77;;;6.37;;
17858;SDS011;35426;30.698;104.050;2023-04-03T06:00:17;20.30;;;6.20;;
17858;SDS011;35426;30.698;104.050;2023-04-03T06:03:00;16.63;;;5.37;;
17858;SDS011;35426;30.698;104.050;2023-04-03T06:05:36;16.27;;;5.50;;
17858;SDS011;35426;30.698;104.050;2023-04-03T06:08:12;17.97;;;5.67;;
17858;SDS011;35426;30.698;104.050;2023-04-03T06:10:48;20.27;;;6.20;;
17858;SDS011;35426;30.698;104.050;2023-04-03T06:13:22;16.33;;;5.60;;
17858;SDS011;35426;30.698;104.050;2023-04-03T06:15:57;12.63;;;5.10;;
17858;SDS011;35426;30.698;104.050;2023-04-03T06:18:34;16.03;;;5.63;;
17858;SDS011;35426;30.698;104.050;2023-04-03T06:21:08;18.03;;;5.10;;
17858;SDS011;35426;30.698;104.050;2023-04-03T06:23:41;13.60;;;4.83;;
17858;SDS011;35426;30.698;104.050;2023-04-03T06:26:17;13.43;;;4.57;;
17858;SDS011;35426;30.698;104.050;2023-04-03T06:28:56;9.40;;;4.23;;
17858;SDS011;35426;30.698;104.050;2023-04-03T06:31:35;12.77;;;4.63;;
17858;SDS011;35426;30.698;104.050;2023-04-03T06:34:10;13.90;;;4.73;;
17858;SDS011;35426;30.698;104.050;2023-04-03T06:36:44;10.87;;;4.50;;
17858;SDS011;35426;30.698;104.050;2023-04-03T06:39:22;14.67;;;5.27;;
17858;SDS011;35426;30.698;104.050;2023-04-03T06:41:56;10.20;;;5.03;;
17858;SDS011;35426;30.698;104.050;2023-04-03T06:44:37;16.80;;;5.80;;
17858;SDS011;35426;30.698;104.050;2023-04-03T06:47:13;16.23;;;5.03;;
17858;SDS011;35426;30.698;104.050;2023-04-03T06:49:48;14.67;;;5.30;;
17858;SDS011;35426;30.698;104.050;2023-04-03T06:52:22;13.60;;;4.90;;
17858;SDS011;35426;30.698;104.050;2023-04-03T06:54:58;16.03;;;4.80;;
17858;SDS011;35426;30.698;104.050;2023-04-03T06:57:31;13.77;;;5.00;;
17858;SDS011;35426;30.698;104.050;2023-04-03T07:00:05;10.03;;;4.97;;
17858;SDS011;35426;30.698;104.050;2023-04-03T07:02:46;12.73;;;5.03;;
17858;SDS011;35426;30.698;104.050;2023-04-03T07:05:19;15.63;;;4.57;;
17858;SDS011;35426;30.698;104.050;2023-04-03T07:07:52;15.27;;;4.63;;
17858;SDS011;35426;30.698;104.050;2023-04-03T07:10:29;15.30;;;5.40;;
17858;SDS011;35426;30.698;104.050;2023-04-03T07:13:06;9.77;;;4.63;;
17858;SDS011;35426;30.698;104.050;2023-04-03T07:15:42;13.40;;;5.23;;
17858;SDS011;35426;30.698;104.050;2023-04-03T07:18:18;12.93;;;5.03;;
17858;SDS011;35426;30.698;104.050;2023-04-03T07:20:53;13.83;;;5.13;;
17858;SDS011;35426;30.698;104.050;2023-04-03T07:23:26;13.73;;;5.10;;
17858;SDS011;35426;30.698;104.050;2023-04-03T07:26:01;7.43;;;4.20;;
17858;SDS011;35426;30.698;104.050;2023-04-03T07:28:34;9.90;;;4.13;;
17858;SDS011;35426;30.698;104.050;2023-04-03T07:31:11;10.77;;;4.50;;
17858;SDS011;35426;30.698;104.050;2023-04-03T07:33:47;10.57;;;4.10;;
17858;SDS011;35426;30.698;104.050;2023-04-03T07:36:20;14.87;;;4.40;;
17858;SDS011;35426;30.698;104.050;2023-04-03T07:38:54;13.97;;;5.30;;
17858;SDS011;35426;30.698;104.050;2023-04-03T07:41:28;14.30;;;4.40;;
17858;SDS011;35426;30.698;104.050;2023-04-03T07:44:04;9.77;;;4.70;;
17858;SDS011;35426;30.698;104.050;2023-04-03T07:46:40;16.10;;;4.70;;
17858;SDS011;35426;30.698;104.050;2023-04-03T07:49:16;10.17;;;4.00;;
17858;SDS011;35426;30.698;104.050;2023-04-03T07:51:49;12.80;;;5.00;;
17858;SDS011;35426;30.698;104.050;2023-04-03T07:54:23;11.13;;;3.90;;
17858;SDS011;35426;30.698;104.050;2023-04-03T07:56:56;11.40;;;4.47;;
17858;SDS011;35426;30.698;104.050;2023-04-03T08:03:17;15.53;;;4.73;;
17858;SDS011;35426;30.698;104.050;2023-04-03T08:05:53;11.97;;;4.37;;
17858;SDS011;35426;30.698;104.050;2023-04-03T08:08:39;13.97;;;4.53;;
17858;SDS011;35426;30.698;104.050;2023-04-03T08:11:13;13.37;;;4.13;;
17858;SDS011;35426;30.698;104.050;2023-04-03T08:13:49;18.37;;;4.60;;
17858;SDS011;35426;30.698;104.050;2023-04-03T08:16:23;14.80;;;4.67;;
17858;SDS011;35426;30.698;104.050;2023-04-03T08:18:57;11.43;;;5.13;;
17858;SDS011;35426;30.698;104.050;2023-04-03T08:21:39;13.60;;;4.80;;
17858;SDS011;35426;30.698;104.050;2023-04-03T08:24:14;10.33;;;4.07;;
17858;SDS011;35426;30.698;104.050;2023-04-03T08:26:48;13.73;;;4.30;;
17858;SDS011;35426;30.698;104.050;2023-04-03T08:29:22;13.30;;;5.93;;
17858;SDS011;35426;30.698;104.050;2023-04-03T08:31:56;11.53;;;5.03;;
17858;SDS011;35426;30.698;104.050;2023-04-03T08:34:30;21.43;;;6.93;;
17858;SDS011;35426;30.698;104.050;2023-04-03T08:37:08;18.00;;;6.50;;
17858;SDS011;35426;30.698;104.050;2023-04-03T08:39:41;15.20;;;7.43;;
17858;SDS011;35426;30.698;104.050;2023-04-03T08:42:15;16.13;;;6.23;;
17858;SDS011;35426;30.698;104.050;2023-04-03T08:44:59;14.03;;;5.90;;
17858;SDS011;35426;30.698;104.050;2023-04-03T08:47:40;17.30;;;5.40;;
17858;SDS011;35426;30.698;104.050;2023-04-03T08:50:23;13.03;;;5.43;;
17858;SDS011;35426;30.698;104.050;2023-04-03T08:53:05;13.10;;;5.73;;
17858;SDS011;35426;30.698;104.050;2023-04-03T08:55:45;10.63;;;4.83;;
17858;SDS011;35426;30.698;104.050;2023-04-03T08:58:21;13.40;;;5.30;;
17858;SDS011;35426;30.698;104.050;2023-04-03T09:00:57;17.33;;;5.93;;
17858;SDS011;35426;30.698;104.050;2023-04-03T09:03:34;12.20;;;5.50;;
17858;SDS011;35426;30.698;104.050;2023-04-03T09:06:13;12.13;;;5.43;;
17858;SDS011;35426;30.698;104.050;2023-04-03T09:08:53;20.80;;;5.60;;
17858;SDS011;35426;30.698;104.050;2023-04-03T09:11:40;11.17;;;4.77;;
17858;SDS011;35426;30.698;104.050;2023-04-03T09:14:26;15.77;;;6.00;;
17858;SDS011;35426;30.698;104.050;2023-04-03T09:17:11;17.00;;;5.73;;
17858;SDS011;35426;30.698;104.050;2023-04-03T09:19:53;19.30;;;5.93;;
17858;SDS011;35426;30.698;104.050;2023-04-03T09:22:31;16.20;;;6.00;;
17858;SDS011;35426;30.698;104.050;2023-04-03T09:25:20;12.70;;;5.60;;
17858;SDS011;35426;30.698;104.050;2023-04-03T09:27:56;14.77;;;5.80;;
17858;SDS011;35426;30.698;104.050;2023-04-03T09:30:31;13.20;;;5.93;;
17858;SDS011;35426;30.698;104.050;2023-04-03T09:33:07;16.67;;;6.23;;
17858;SDS011;35426;30.698;104.050;2023-04-03T09:35:42;13.57;;;5.90;;
17858;SDS011;35426;30.698;104.050;2023-04-03T09:38:19;22.33;;;6.13;;
17858;SDS011;35426;30.698;104.050;2023-04-03T09:41:04;16.50;;;5.67;;
17858;SDS011;35426;30.698;104.050;2023-04-03T09:43:41;18.07;;;5.70;;
17858;SDS011;35426;30.698;104.050;2023-04-03T09:46:31;17.20;;;5.70;;
17858;SDS011;35426;30.698;104.050;2023-04-03T09:49:08;16.70;;;5.60;;
17858;SDS011;35426;30.698;104.050;2023-04-03T09:51:44;18.47;;;6.10;;
17858;SDS011;35426;30.698;104.050;2023-04-03T09:54:26;16.23;;;6.10;;
17858;SDS011;35426;30.698;104.050;2023-04-03T09:57:09;21.27;;;6.83;;
17858;SDS011;35426;30.698;104.050;2023-04-03T09:59:57;18.37;;;5.57;;
17858;SDS011;35426;30.698;104.050;2023-04-03T10:02:37;27.03;;;6.90;;
17858;SDS011;35426;30.698;104.050;2023-04-03T10:05:25;26.87;;;7.33;;
17858;SDS011;35426;30.698;104.050;2023-04-03T10:08:10;21.20;;;7.00;;
17858;SDS011;35426;30.698;104.050;2023-04-03T10:11:09;14.83;;;6.03;;
17858;SDS011;35426;30.698;104.050;2023-04-03T10:13:53;19.13;;;7.07;;
17858;SDS011;35426;30.698;104.050;2023-04-03T10:16:34;15.80;;;6.00;;
17858;SDS011;35426;30.698;104.050;2023-04-03T10:19:29;18.93;;;6.87;;
17858;SDS011;35426;30.698;104.050;2023-04-03T10:22:16;14.47;;;5.90;;
17858;SDS011;35426;30.698;104.050;2023-04-03T10:24:57;15.30;;;5.50;;
17858;SDS011;35426;30.698;104.050;2023-04-03T10:27:43;22.67;;;6.77;;
17858;SDS011;35426;30.698;104.050;2023-04-03T10:30:32;24.90;;;6.50;;
17858;SDS011;35426;30.698;104.050;2023-04-03T10:33:22;17.63;;;6.90;;
17858;SDS011;35426;30.698;104.050;2023-04-03T10:36:31;16.87;;;7.00;;
17858;SDS011;35426;30.698;104.050;2023-04-03T10:39:17;17.33;;;6.50;;
17858;SDS011;35426;30.698;104.050;2023-04-03T10:42:02;29.47;;;6.50;;
17858;SDS011;35426;30.698;104.050;2023-04-03T10:44:52;21.50;;;7.13;;
17858;SDS011;35426;30.698;104.050;2023-04-03T10:47:34;25.27;;;7.70;;
17858;SDS011;35426;30.698;104.050;2023-04-03T10:50:29;29.50;;;7.93;;
17858;SDS011;35426;30.698;104.050;2023-04-03T10:53:16;30.27;;;8.20;;
17858;SDS011;35426;30.698;104.050;2023-04-03T10:56:01;24.80;;;8.93;;
17858;SDS011;35426;30.698;104.050;2023-04-03T10:58:43;31.73;;;7.63;;
17858;SDS011;35426;30.698;104.050;2023-04-03T11:01:20;21.80;;;7.50;;
17858;SDS011;35426;30.698;104.050;2023-04-03T11:04:06;19.50;;;7.87;;
17858;SDS011;35426;30.698;104.050;2023-04-03T11:06:42;30.73;;;8.20;;
17858;SDS011;35426;30.698;104.050;2023-04-03T11:09:23;24.13;;;7.87;;
17858;SDS011;35426;30.698;104.050;2023-04-03T11:12:02;20.37;;;7.40;;
17858;SDS011;35426;30.698;104.050;2023-04-03T11:14:41;24.23;;;8.37;;
17858;SDS011;35426;30.698;104.050;2023-04-03T11:17:19;23.03;;;8.57;;
17858;SDS011;35426;30.698;104.050;2023-04-03T11:20:03;20.63;;;7.73;;
17858;SDS011;35426;30.698;104.050;2023-04-03T11:22:48;30.10;;;8.73;;
17858;SDS011;35426;30.698;104.050;2023-04-03T11:25:28;21.13;;;8.30;;
17858;SDS011;35426;30.698;104.050;2023-04-03T11:28:05;23.50;;;8.83;;
17858;SDS011;35426;30.698;104.050;2023-04-03T11:30:45;29.50;;;9.40;;
17858;SDS011;35426;30.698;104.050;2023-04-03T11:33:30;34.67;;;10.10;;
17858;SDS011;35426;30.698;104.050;2023-04-03T11:36:18;32.60;;;10.27;;
17858;SDS011;35426;30.698;104.050;2023-04-03T11:39:09;34.33;;;10.03;;
17858;SDS011;35426;30.698;104.050;2023-04-03T11:41:52;33.70;;;9.57;;
17858;SDS011;35426;30.698;104.050;2023-04-03T11:44:40;28.63;;;9.13;;
17858;SDS011;35426;30.698;104.050;2023-04-03T11:50:32;34.53;;;10.33;;
17858;SDS011;35426;30.698;104.050;2023-04-03T11:53:37;34.33;;;10.40;;
17858;SDS011;35426;30.698;104.050;2023-04-03T11:56:28;36.83;;;10.10;;
17858;SDS011;35426;30.698;104.050;2023-04-03T12:01:58;29.47;;;10.87;;
17858;SDS011;35426;30.698;104.050;2023-04-03T12:04:32;30.07;;;10.70;;
17858;SDS011;35426;30.698;104.050;2023-04-03T12:10:00;31.67;;;11.40;;
17858;SDS011;35426;30.698;104.050;2023-04-03T12:12:59;36.03;;;10.20;;
17858;SDS011;35426;30.698;104.050;2023-04-03T12:15:53;34.93;;;11.50;;
17858;SDS011;35426;30.698;104.050;2023-04-03T12:24:49;31.90;;;11.17;;
17858;SDS011;35426;30.698;104.050;2023-04-03T12:27:27;39.00;;;12.40;;
17858;SDS011;35426;30.698;104.050;2023-04-03T12:30:14;34.80;;;12.10;;
17858;SDS011;35426;30.698;104.050;2023-04-03T12:33:09;33.07;;;11.80;;
17858;SDS011;35426;30.698;104.050;2023-04-03T12:35:55;33.13;;;12.53;;
17858;SDS011;35426;30.698;104.050;2023-04-03T12:41:46;30.80;;;12.47;;
17858;SDS011;35426;30.698;104.050;2023-04-03T12:44:30;35.13;;;13.13;;
17858;SDS011;35426;30.698;104.050;2023-04-03T12:47:26;39.43;;;13.13;;
17858;SDS011;35426;30.698;104.050;2023-04-03T12:50:13;33.73;;;12.07;;
17858;SDS011;35426;30.698;104.050;2023-04-03T12:52:57;35.23;;;12.07;;
17858;SDS011;35426;30.698;104.050;2023-04-03T12:55:36;37.53;;;11.73;;
17858;SDS011;35426;30.698;104.050;2023-04-03T12:58:16;39.43;;;13.17;;
17858;SDS011;35426;30.698;104.050;2023-04-03T13:01:03;39.33;;;14.97;;
17858;SDS011;35426;30.698;104.050;2023-04-03T13:03:45;33.60;;;11.47;;
17858;SDS011;35426;30.698;104.050;2023-04-03T13:06:24;36.77;;;12.17;;
17858;SDS011;35426;30.698;104.050;2023-04-03T13:09:17;34.33;;;12.13;;
17858;SDS011;35426;30.698;104.050;2023-04-03T13:12:09;39.70;;;11.27;;
17858;SDS011;35426;30.698;104.050;2023-04-03T13:14:51;38.30;;;11.33;;
17858;SDS011;35426;30.698;104.050;2023-04-03T13:17:30;38.20;;;11.73;;
17858;SDS011;35426;30.698;104.050;2023-04-03T13:20:14;37.53;;;11.17;;
17858;SDS011;35426;30.698;104.050;2023-04-03T13:23:00;37.20;;;11.30;;
17858;SDS011;35426;30.698;104.050;2023-04-03T13:25:41;33.97;;;10.83;;
17858;SDS011;35426;30.698;104.050;2023-04-03T13:28:19;34.00;;;11.90;;
17858;SDS011;35426;30.698;104.050;2023-04-03T13:31:08;26.33;;;10.53;;
17858;SDS011;35426;30.698;104.050;2023-04-03T13:34:02;31.07;;;10.97;;
17858;SDS011;35426;30.698;104.050;2023-04-03T13:36:40;27.67;;;9.80;;
17858;SDS011;35426;30.698;104.050;2023-04-03T13:39:21;31.30;;;9.97;;
17858;SDS011;35426;30.698;104.050;2023-04-03T13:41:57;33.00;;;9.27;;
17858;SDS011;35426;30.698;104.050;2023-04-03T13:44:34;27.80;;;9.53;;
17858;SDS011;35426;30.698;104.050;2023-04-03T13:47:17;27.20;;;9.47;;
17858;SDS011;35426;30.698;104.050;2023-04-03T13:50:14;22.53;;;9.10;;
17858;SDS011;35426;30.698;104.050;2023-04-03T13:52:52;27.70;;;9.70;;
17858;SDS011;35426;30.698;104.050;2023-04-03T13:55:27;30.20;;;9.73;;
17858;SDS011;35426;30.698;104.050;2023-04-03T13:58:20;28.00;;;10.07;;
17858;SDS011;35426;30.698;104.050;2023-04-03T14:00:58;30.13;;;9.87;;
17858;SDS011;35426;30.698;104.050;2023-04-03T14:03:42;27.80;;;10.23;;
17858;SDS011;35426;30.698;104.050;2023-04-03T14:06:19;25.03;;;9.67;;
17858;SDS011;35426;30.698;104.050;2023-04-03T14:08:56;25.83;;;10.23;;
17858;SDS011;35426;30.698;104.050;2023-04-03T14:11:31;31.93;;;10.70;;
17858;SDS011;35426;30.698;104.050;2023-04-03T14:14:11;26.23;;;10.27;;
17858;SDS011;35426;30.698;104.050;2023-04-03T14:16:50;30.03;;;10.33;;
17858;SDS011;35426;30.698;104.050;2023-04-03T14:19:29;26.40;;;10.50;;
17858;SDS011;35426;30.698;104.050;2023-04-03T14:22:11;26.10;;;11.07;;
17858;SDS011;35426;30.698;104.050;2023-04-03T14:24:51;30.17;;;11.03;;
17858;SDS011;35426;30.698;104.050;2023-04-03T14:27:34;31.37;;;11.23;;
17858;SDS011;35426;30.698;104.050;2023-04-03T14:30:17;28.53;;;11.87;;
17858;SDS011;35426;30.698;104.050;2023-04-03T14:33:01;27.90;;;11.53;;
17858;SDS011;35426;30.698;104.050;2023-04-03T14:35:37;27.93;;;11.40;;
17858;SDS011;35426;30.698;104.050;2023-04-03T14:38:20;31.97;;;12.50;;
17858;SDS011;35426;30.698;104.050;2023-04-03T14:40:58;27.33;;;12.03;;
17858;SDS011;35426;30.698;104.050;2023-04-03T14:43:43;29.57;;;11.83;;
17858;SDS011;35426;30.698;104.050;2023-04-03T14:46:17;31.20;;;11.70;;
17858;SDS011;35426;30.698;104.050;2023-04-03T14:48:59;34.90;;;12.00;;
17858;SDS011;35426;30.698;104.050;2023-04-03T14:51:38;31.77;;;12.30;;
17858;SDS011;35426;30.698;104.050;2023-04-03T14:54:15;29.37;;;12.20;;
17858;SDS011;35426;30.698;104.050;2023-04-03T14:56:54;38.00;;;12.87;;
17858;SDS011;35426;30.698;104.050;2023-04-03T14:59:34;31.93;;;12.97;;
17858;SDS011;35426;30.698;104.050;2023-04-03T15:05:07;31.50;;;12.70;;
17858;SDS011;35426;30.698;104.050;2023-04-03T15:08:00;32.50;;;13.20;;
17858;SDS011;35426;30.698;104.050;2023-04-03T15:10:37;27.13;;;13.13;;
17858;SDS011;35426;30.698;104.050;2023-04-03T15:13:12;32.67;;;13.67;;
17858;SDS011;35426;30.698;104.050;2023-04-03T15:15:46;33.57;;;13.93;;
17858;SDS011;35426;30.698;104.050;2023-04-03T15:18:25;29.57;;;13.30;;
17858;SDS011;35426;30.698;104.050;2023-04-03T15:21:02;32.20;;;13.10;;
17858;SDS011;35426;30.698;104.050;2023-04-03T15:23:39;36.07;;;13.70;;
17858;SDS011;35426;30.698;104.050;2023-04-03T15:26:15;34.37;;;13.20;;
17858;SDS011;35426;30.698;104.050;2023-04-03T15:28:52;31.60;;;12.87;;
17858;SDS011;35426;30.698;104.050;2023-04-03T15:31:29;28.03;;;12.47;;
17858;SDS011;35426;30.698;104.050;2023-04-03T15:34:02;30.63;;;13.00;;
17858;SDS011;35426;30.698;104.050;2023-04-03T15:36:36;31.60;;;13.10;;
17858;SDS011;35426;30.698;104.050;2023-04-03T15:39:09;34.80;;;14.27;;
17858;SDS011;35426;30.698;104.050;2023-04-03T15:41:48;34.10;;;13.83;;
17858;SDS011;35426;30.698;104.050;2023-04-03T15:44:23;30.87;;;13.90;;